Flight Track Log - Related Links

Times and Time Zones

All times are in EDT time to prevent confusion due to time zone crossing. See the N1926A flight status page for this flight to view local times or setup timezone preferences in your user account.

Time Position Orientation Groundspeed Altitude Reporting Facility
EDT Latitude Longitude Course Direction KTS MPH feet Rate Location/Type
Tue 03:50:52 PM 32.9231 -86.2339 325° Northwest 251 289 8,000  Level Atlanta Center
Tue 03:52:00 PM 32.8584 -86.1602 325° Northwest  Level Estimated
Tue 03:52:12 PM 33.0014 -86.2903 329° Northwest 248 285 8,000  Level Atlanta Center
Tue 03:53:00 PM 32.9074 -86.2010 325° Northwest  Level Estimated
Tue 03:53:12 PM 33.0592 -86.3339 328° Northwest 249 287 8,000  Level Atlanta Center
Tue 03:54:00 PM 32.9564 -86.2418 325° Northwest  Level Estimated
Tue 03:54:13 PM 33.1167 -86.3800 326° Northwest 248 285 8,000  Level Atlanta Center
Tue 03:55:00 PM 33.0054 -86.2826 325° Northwest  Level Estimated
Tue 03:55:14 PM 33.1742 -86.4264 326° Northwest 247 284 8,000  Level Atlanta Center
Tue 03:56:00 PM 33.0544 -86.3235 325° Northwest  Level Estimated
Tue 03:56:14 PM 33.2339 -86.4750 326° Northwest 247 284 8,000  Level Atlanta Center
Tue 03:57:33 PM 33.3078 -86.5369 325° Northwest 249 287 8,000  Level Atlanta Center
Tue 03:58:28 PM 33.3569 -86.5781 325° Northwest 249 287 8,000  Level Atlanta Center
Tue 03:59:34 PM 33.4206 -86.6322 325° Northwest 249 287 8,000 -898 Level Atlanta Center
Tue 04:00:35 PM 33.4672 -86.6933 312° West 248 285 6,100 -1,918 Descending Atlanta Center
Tue 04:01:36 PM 33.4928 -86.7664 293° West 234 269 4,100 -1,465 Descending Atlanta Center
Tue 04:02:42 PM 33.5100 -86.8292 288° West 163 188 3,000 -1,181 Descending Atlanta Center
Tue 04:03:43 PM 33.5378 -86.8003 41° Northeast 118 136 1,600 -1,377 Descending Atlanta Center
Tue 04:05:00 PM 33.5500 -86.7500 North  Level FlightAware Approximate
Tue 04:12:00 PM 33.5639 -86.7523 North  Level Estimated

Login

Don't have an account? Register now (free) for customized features, flight alerts, and more!